Terminal Aerodrome Forecast
Issued by NWS

Home | Current Version | Previous Version | Text Only | Print | Product List | Glossary On
Versions: 1 2 3 4 5 6 7 8 9 10 11 12 13
000
FTUS46 KSEW 040537
TAFOLM
TAF
KOLM 040537Z 0406/0506 00000KT P6SM SKC
     FM041200 36003KT P6SM BKN020 BKN060
     FM042000 36005KT P6SM SCT030 BKN080=

USA.gov is the U.S. government's official web portal to all federal, state and local government web resources and services.